This is the latest recevied weather packets stored in our database for station/object K0PFX-8. If no packets are shown the sender has not sent any weather packets the latest 10 day(s).
| Time | Temp. | Humidity | Pressure | Rain* | Wind** | Luminosity | Snow |
|---|---|---|---|---|---|---|---|
| 1777562517 | 14.44° C | 31% | 1020.4 hPa | 0 mm | 0 m/s | - | - |
| 1777561616 | 13.89° C | 39% | 1020.6 hPa | 0 mm | 0 m/s | - | - |
| 1777560718 | 13.33° C | 43% | 1020.5 hPa | 0 mm | 1.34 m/s, 117° | - | - |
| 1777559816 | 12.78° C | 49% | 1020.5 hPa | 0 mm | 0.45 m/s, 248° | - | - |
| 1777558918 | 12.22° C | 61% | 1020.6 hPa | 0 mm | 0.45 m/s, 232° | - | - |
| 1777557118 | 11.67° C | 69% | 1020.7 hPa | 0 mm | 0 m/s | - | - |
| 1777556217 | 11.67° C | 77% | 1020.8 hPa | 0 mm | 0 m/s | - | - |
| 1777555318 | 11.11° C | 90% | 1020.8 hPa | 0 mm | 0 m/s | - | - |
| 1777554417 | 8.89° C | 96% | 1021.1 hPa | 0 mm | 0 m/s | - | - |
| 1777553519 | 7.78° C | 100% | 1021.1 hPa | 0 mm | 0 m/s | - | - |
| 1777552615 | 6.67° C | 100% | 1020.8 hPa | 0 mm | 0 m/s | - | - |
| 1777551717 | 6.11° C | 100% | 1020.8 hPa | 0 mm | 0 m/s | - | - |
| 1777550816 | 5.56° C | 100% | 1020.7 hPa | 0 mm | 0 m/s | - | - |
| 1777549918 | 5° C | 100% | 1020.8 hPa | 0 mm | 0 m/s | - | - |
| 1777549016 | 5° C | 100% | 1020.6 hPa | 0 mm | 0 m/s | - | - |
| 1777548118 | 5° C | 98% | 1020.4 hPa | 0 mm | 0 m/s | - | - |
| 1777547217 | 5° C | 97% | 1020.3 hPa | 0 mm | 0 m/s | - | - |
| 1777546317 | 5° C | 98% | 1020.6 hPa | 0 mm | 0 m/s | - | - |
| 1777545416 | 5° C | 97% | 1020.3 hPa | 0 mm | 0 m/s | - | - |
| 1777544517 | 5.56° C | 98% | 1020 hPa | 0 mm | 0 m/s | - | - |
| 1777543616 | 5.56° C | 97% | 1020.1 hPa | 0 mm | 0 m/s | - | - |
| 1777542716 | 5.56° C | 96% | 1020 hPa | 0 mm | 0 m/s | - | - |
| 1777541815 | 5.56° C | 96% | 1020.1 hPa | 0 mm | 0 m/s | - | - |
| 1777540916 | 5.56° C | 96% | 1020.2 hPa | 0 mm | 0 m/s | - | - |
| 1777540015 | 6.11° C | 95% | 1019.9 hPa | 0 mm | 0 m/s | - | - |
* Rain latest hour (hover to see other rain measurements)
** Current wind speed in m/s (hover to see current wind gust speed)